sensor_id;sensor_type;location;lat;lon;timestamp;temperature;humidity
14252;DHT22;7210;51.502;10.722;2023-02-12T00:01:26;6.20;1.00
14252;DHT22;7210;51.502;10.722;2023-02-12T00:03:57;6.20;1.00
14252;DHT22;7210;51.502;10.722;2023-02-12T00:06:24;6.20;1.00
14252;DHT22;7210;51.502;10.722;2023-02-12T00:08:54;6.20;1.00
14252;DHT22;7210;51.502;10.722;2023-02-12T00:11:26;6.10;1.00
14252;DHT22;7210;51.502;10.722;2023-02-12T00:13:55;6.20;1.00
14252;DHT22;7210;51.502;10.722;2023-02-12T00:16:24;6.10;1.00
14252;DHT22;7210;51.502;10.722;2023-02-12T00:18:55;6.10;1.00
14252;DHT22;7210;51.502;10.722;2023-02-12T00:21:23;6.10;1.00
14252;DHT22;7210;51.502;10.722;2023-02-12T00:23:51;6.10;1.00
14252;DHT22;7210;51.502;10.722;2023-02-12T00:26:19;6.00;1.00
14252;DHT22;7210;51.502;10.722;2023-02-12T00:28:50;6.10;1.00
14252;DHT22;7210;51.502;10.722;2023-02-12T00:31:19;6.10;1.00
14252;DHT22;7210;51.502;10.722;2023-02-12T00:33:50;6.10;1.00
14252;DHT22;7210;51.502;10.722;2023-02-12T00:36:19;6.10;1.00
14252;DHT22;7210;51.502;10.722;2023-02-12T00:38:49;6.00;1.00
14252;DHT22;7210;51.502;10.722;2023-02-12T00:41:18;6.10;1.00
14252;DHT22;7210;51.502;10.722;2023-02-12T00:43:45;6.00;1.00
14252;DHT22;7210;51.502;10.722;2023-02-12T00:46:13;6.00;1.00
14252;DHT22;7210;51.502;10.722;2023-02-12T00:48:42;6.10;1.00
14252;DHT22;7210;51.502;10.722;2023-02-12T00:51:11;6.10;1.00
14252;DHT22;7210;51.502;10.722;2023-02-12T00:53:38;6.10;1.00
14252;DHT22;7210;51.502;10.722;2023-02-12T00:56:06;6.10;1.00
14252;DHT22;7210;51.502;10.722;2023-02-12T00:58:33;6.10;1.00
14252;DHT22;7210;51.502;10.722;2023-02-12T01:01:00;6.10;1.00
14252;DHT22;7210;51.502;10.722;2023-02-12T01:03:30;6.10;1.00
14252;DHT22;7210;51.502;10.722;2023-02-12T01:06:11;6.20;1.00
14252;DHT22;7210;51.502;10.722;2023-02-12T01:08:39;6.10;1.00
14252;DHT22;7210;51.502;10.722;2023-02-12T01:11:06;6.10;1.00
14252;DHT22;7210;51.502;10.722;2023-02-12T01:13:34;6.10;1.00
14252;DHT22;7210;51.502;10.722;2023-02-12T01:16:04;6.10;1.00
14252;DHT22;7210;51.502;10.722;2023-02-12T01:18:34;6.20;1.00
14252;DHT22;7210;51.502;10.722;2023-02-12T01:21:07;6.10;1.00
14252;DHT22;7210;51.502;10.722;2023-02-12T01:23:37;6.20;1.00
14252;DHT22;7210;51.502;10.722;2023-02-12T01:26:04;6.10;1.00
14252;DHT22;7210;51.502;10.722;2023-02-12T01:28:35;6.20;1.00
14252;DHT22;7210;51.502;10.722;2023-02-12T01:31:07;6.20;1.00
14252;DHT22;7210;51.502;10.722;2023-02-12T01:33:36;6.20;1.00
14252;DHT22;7210;51.502;10.722;2023-02-12T01:36:03;6.20;1.00
14252;DHT22;7210;51.502;10.722;2023-02-12T01:38:31;6.20;1.00
14252;DHT22;7210;51.502;10.722;2023-02-12T01:41:05;6.20;1.00
14252;DHT22;7210;51.502;10.722;2023-02-12T01:43:34;6.20;1.00
14252;DHT22;7210;51.502;10.722;2023-02-12T01:46:07;6.20;1.00
14252;DHT22;7210;51.502;10.722;2023-02-12T01:48:41;6.30;1.00
14252;DHT22;7210;51.502;10.722;2023-02-12T01:51:16;6.20;1.00
14252;DHT22;7210;51.502;10.722;2023-02-12T01:53:49;6.20;1.00
14252;DHT22;7210;51.502;10.722;2023-02-12T01:56:22;6.10;1.00
14252;DHT22;7210;51.502;10.722;2023-02-12T01:58:56;6.10;1.00
14252;DHT22;7210;51.502;10.722;2023-02-12T02:01:26;6.10;1.00
14252;DHT22;7210;51.502;10.722;2023-02-12T02:04:06;6.20;1.00
14252;DHT22;7210;51.502;10.722;2023-02-12T02:06:41;6.10;1.00
14252;DHT22;7210;51.502;10.722;2023-02-12T02:09:15;6.10;1.00
14252;DHT22;7210;51.502;10.722;2023-02-12T02:11:45;6.10;1.00
14252;DHT22;7210;51.502;10.722;2023-02-12T02:14:30;6.20;1.00
14252;DHT22;7210;51.502;10.722;2023-02-12T02:17:14;6.10;1.00
14252;DHT22;7210;51.502;10.722;2023-02-12T02:20:41;6.10;1.00
14252;DHT22;7210;51.502;10.722;2023-02-12T02:23:50;6.20;1.00
14252;DHT22;7210;51.502;10.722;2023-02-12T02:30:23;6.10;1.00
14252;DHT22;7210;51.502;10.722;2023-02-12T02:33:09;6.10;1.00
14252;DHT22;7210;51.502;10.722;2023-02-12T02:35:54;6.10;1.00
14252;DHT22;7210;51.502;10.722;2023-02-12T02:38:34;6.10;1.00
14252;DHT22;7210;51.502;10.722;2023-02-12T02:41:16;6.20;1.00
14252;DHT22;7210;51.502;10.722;2023-02-12T02:43:52;6.10;1.00
14252;DHT22;7210;51.502;10.722;2023-02-12T02:46:28;6.10;1.00
14252;DHT22;7210;51.502;10.722;2023-02-12T02:49:01;6.10;1.00
14252;DHT22;7210;51.502;10.722;2023-02-12T02:51:34;6.10;1.00
14252;DHT22;7210;51.502;10.722;2023-02-12T02:54:09;6.20;1.00
14252;DHT22;7210;51.502;10.722;2023-02-12T02:56:46;6.10;1.00
14252;DHT22;7210;51.502;10.722;2023-02-12T02:59:20;6.10;1.00
14252;DHT22;7210;51.502;10.722;2023-02-12T03:01:58;6.10;1.00
14252;DHT22;7210;51.502;10.722;2023-02-12T03:04:32;6.10;1.00
14252;DHT22;7210;51.502;10.722;2023-02-12T03:07:07;6.10;1.00
14252;DHT22;7210;51.502;10.722;2023-02-12T03:09:39;6.10;1.00
14252;DHT22;7210;51.502;10.722;2023-02-12T03:12:11;6.10;1.00
14252;DHT22;7210;51.502;10.722;2023-02-12T03:14:46;6.00;1.00
14252;DHT22;7210;51.502;10.722;2023-02-12T03:17:21;5.90;1.00
14252;DHT22;7210;51.502;10.722;2023-02-12T03:19:57;6.00;1.00
14252;DHT22;7210;51.502;10.722;2023-02-12T03:22:31;5.90;1.00
14252;DHT22;7210;51.502;10.722;2023-02-12T03:25:06;6.00;1.00
14252;DHT22;7210;51.502;10.722;2023-02-12T03:27:42;6.00;1.00
14252;DHT22;7210;51.502;10.722;2023-02-12T03:30:15;6.00;1.00
14252;DHT22;7210;51.502;10.722;2023-02-12T03:32:56;6.10;1.00
14252;DHT22;7210;51.502;10.722;2023-02-12T03:35:31;6.00;1.00
14252;DHT22;7210;51.502;10.722;2023-02-12T03:38:10;6.10;1.00
14252;DHT22;7210;51.502;10.722;2023-02-12T03:40:49;6.10;1.00
14252;DHT22;7210;51.502;10.722;2023-02-12T03:43:26;6.10;1.00
14252;DHT22;7210;51.502;10.722;2023-02-12T03:46:00;6.10;1.00
14252;DHT22;7210;51.502;10.722;2023-02-12T03:48:40;6.10;1.00
14252;DHT22;7210;51.502;10.722;2023-02-12T03:51:29;6.10;1.00
14252;DHT22;7210;51.502;10.722;2023-02-12T03:54:01;6.10;1.00
14252;DHT22;7210;51.502;10.722;2023-02-12T03:56:36;6.10;1.00
14252;DHT22;7210;51.502;10.722;2023-02-12T03:59:06;6.20;1.00
14252;DHT22;7210;51.502;10.722;2023-02-12T04:01:34;6.10;1.00
14252;DHT22;7210;51.502;10.722;2023-02-12T04:04:05;6.10;1.00
14252;DHT22;7210;51.502;10.722;2023-02-12T04:06:36;6.10;1.00
14252;DHT22;7210;51.502;10.722;2023-02-12T04:09:06;6.10;1.00
14252;DHT22;7210;51.502;10.722;2023-02-12T04:11:44;6.10;1.00
14252;DHT22;7210;51.502;10.722;2023-02-12T04:14:26;6.10;1.00
14252;DHT22;7210;51.502;10.722;2023-02-12T04:17:07;6.10;1.00
14252;DHT22;7210;51.502;10.722;2023-02-12T04:19:46;6.10;1.00
14252;DHT22;7210;51.502;10.722;2023-02-12T04:22:33;6.10;1.00
14252;DHT22;7210;51.502;10.722;2023-02-12T04:25:21;6.00;1.00
14252;DHT22;7210;51.502;10.722;2023-02-12T04:28:12;6.00;1.00
14252;DHT22;7210;51.502;10.722;2023-02-12T04:30:55;6.00;1.00
14252;DHT22;7210;51.502;10.722;2023-02-12T04:33:33;6.00;1.00
14252;DHT22;7210;51.502;10.722;2023-02-12T04:36:11;6.00;1.00
14252;DHT22;7210;51.502;10.722;2023-02-12T04:38:47;6.00;1.00
14252;DHT22;7210;51.502;10.722;2023-02-12T04:41:18;6.00;1.00
14252;DHT22;7210;51.502;10.722;2023-02-12T04:43:45;6.10;1.00
14252;DHT22;7210;51.502;10.722;2023-02-12T04:46:13;6.10;1.00
14252;DHT22;7210;51.502;10.722;2023-02-12T04:48:49;6.10;1.00
14252;DHT22;7210;51.502;10.722;2023-02-12T04:51:20;6.00;1.00
14252;DHT22;7210;51.502;10.722;2023-02-12T04:53:48;6.00;1.00
14252;DHT22;7210;51.502;10.722;2023-02-12T04:56:15;6.00;1.00
14252;DHT22;7210;51.502;10.722;2023-02-12T04:58:43;6.00;1.00
14252;DHT22;7210;51.502;10.722;2023-02-12T05:01:10;6.10;1.00
14252;DHT22;7210;51.502;10.722;2023-02-12T05:03:38;6.00;1.00
14252;DHT22;7210;51.502;10.722;2023-02-12T05:06:07;6.00;1.00
14252;DHT22;7210;51.502;10.722;2023-02-12T05:08:36;5.90;1.00
14252;DHT22;7210;51.502;10.722;2023-02-12T05:11:05;6.00;1.00
14252;DHT22;7210;51.502;10.722;2023-02-12T05:13:34;6.00;1.00
14252;DHT22;7210;51.502;10.722;2023-02-12T05:16:03;6.00;1.00
14252;DHT22;7210;51.502;10.722;2023-02-12T05:18:31;6.00;1.00
14252;DHT22;7210;51.502;10.722;2023-02-12T05:21:00;6.00;1.00
14252;DHT22;7210;51.502;10.722;2023-02-12T05:23:30;6.10;1.00
14252;DHT22;7210;51.502;10.722;2023-02-12T05:26:13;6.00;1.00
14252;DHT22;7210;51.502;10.722;2023-02-12T05:28:42;6.00;1.00
14252;DHT22;7210;51.502;10.722;2023-02-12T05:31:11;6.00;1.00
14252;DHT22;7210;51.502;10.722;2023-02-12T05:33:41;6.00;1.00
14252;DHT22;7210;51.502;10.722;2023-02-12T05:36:10;6.00;1.00
14252;DHT22;7210;51.502;10.722;2023-02-12T05:38:39;6.00;1.00
14252;DHT22;7210;51.502;10.722;2023-02-12T05:41:08;6.00;1.00
14252;DHT22;7210;51.502;10.722;2023-02-12T05:43:39;6.00;1.00
14252;DHT22;7210;51.502;10.722;2023-02-12T05:46:07;6.00;1.00
14252;DHT22;7210;51.502;10.722;2023-02-12T05:48:35;6.00;1.00
14252;DHT22;7210;51.502;10.722;2023-02-12T05:51:04;6.00;1.00
14252;DHT22;7210;51.502;10.722;2023-02-12T05:53:33;5.90;1.00
14252;DHT22;7210;51.502;10.722;2023-02-12T05:56:14;5.80;1.00
14252;DHT22;7210;51.502;10.722;2023-02-12T05:58:45;5.80;1.00
14252;DHT22;7210;51.502;10.722;2023-02-12T06:01:15;5.80;1.00
14252;DHT22;7210;51.502;10.722;2023-02-12T06:03:44;5.80;1.00
14252;DHT22;7210;51.502;10.722;2023-02-12T06:06:12;5.80;1.00
14252;DHT22;7210;51.502;10.722;2023-02-12T06:08:40;5.80;1.00
14252;DHT22;7210;51.502;10.722;2023-02-12T06:11:12;5.80;1.00
14252;DHT22;7210;51.502;10.722;2023-02-12T06:13:40;5.80;1.00
14252;DHT22;7210;51.502;10.722;2023-02-12T06:16:16;5.90;1.00
14252;DHT22;7210;51.502;10.722;2023-02-12T06:18:45;5.90;1.00
14252;DHT22;7210;51.502;10.722;2023-02-12T06:21:13;5.90;1.00
14252;DHT22;7210;51.502;10.722;2023-02-12T06:23:40;5.90;1.00
14252;DHT22;7210;51.502;10.722;2023-02-12T06:26:14;5.90;1.00
14252;DHT22;7210;51.502;10.722;2023-02-12T06:28:42;5.90;1.00
14252;DHT22;7210;51.502;10.722;2023-02-12T06:31:20;5.90;1.00
14252;DHT22;7210;51.502;10.722;2023-02-12T06:33:49;5.90;1.00
14252;DHT22;7210;51.502;10.722;2023-02-12T06:36:18;5.90;1.00
14252;DHT22;7210;51.502;10.722;2023-02-12T06:38:47;5.90;1.00
14252;DHT22;7210;51.502;10.722;2023-02-12T06:41:16;5.90;1.00
14252;DHT22;7210;51.502;10.722;2023-02-12T06:43:44;5.90;1.00
14252;DHT22;7210;51.502;10.722;2023-02-12T06:46:12;5.90;1.00
14252;DHT22;7210;51.502;10.722;2023-02-12T06:48:39;5.80;1.00
14252;DHT22;7210;51.502;10.722;2023-02-12T06:51:14;5.80;1.00
14252;DHT22;7210;51.502;10.722;2023-02-12T06:53:47;5.90;1.00
14252;DHT22;7210;51.502;10.722;2023-02-12T06:56:17;5.80;1.00
14252;DHT22;7210;51.502;10.722;2023-02-12T06:58:50;5.80;1.00
14252;DHT22;7210;51.502;10.722;2023-02-12T07:01:21;5.80;1.00
14252;DHT22;7210;51.502;10.722;2023-02-12T07:03:51;5.80;1.00
14252;DHT22;7210;51.502;10.722;2023-02-12T07:06:21;5.80;1.00
14252;DHT22;7210;51.502;10.722;2023-02-12T07:08:49;5.90;1.00
14252;DHT22;7210;51.502;10.722;2023-02-12T07:11:22;6.00;1.00
14252;DHT22;7210;51.502;10.722;2023-02-12T07:13:50;6.00;1.00
14252;DHT22;7210;51.502;10.722;2023-02-12T07:16:20;6.00;1.00
14252;DHT22;7210;51.502;10.722;2023-02-12T07:18:48;6.00;1.00
14252;DHT22;7210;51.502;10.722;2023-02-12T07:21:17;6.00;1.00
14252;DHT22;7210;51.502;10.722;2023-02-12T07:23:46;6.00;1.00
14252;DHT22;7210;51.502;10.722;2023-02-12T07:26:18;6.00;1.00
14252;DHT22;7210;51.502;10.722;2023-02-12T07:28:47;6.00;1.00
14252;DHT22;7210;51.502;10.722;2023-02-12T07:31:17;6.10;1.00
14252;DHT22;7210;51.502;10.722;2023-02-12T07:33:46;6.10;1.00
14252;DHT22;7210;51.502;10.722;2023-02-12T07:36:17;6.20;1.00
14252;DHT22;7210;51.502;10.722;2023-02-12T07:38:45;6.20;1.00
14252;DHT22;7210;51.502;10.722;2023-02-12T07:41:27;6.20;1.00
14252;DHT22;7210;51.502;10.722;2023-02-12T07:43:58;6.20;1.00
14252;DHT22;7210;51.502;10.722;2023-02-12T07:46:30;6.30;1.00
14252;DHT22;7210;51.502;10.722;2023-02-12T07:49:00;6.30;1.00
14252;DHT22;7210;51.502;10.722;2023-02-12T07:51:30;6.40;1.00
14252;DHT22;7210;51.502;10.722;2023-02-12T07:54:00;6.40;1.00
14252;DHT22;7210;51.502;10.722;2023-02-12T07:56:34;6.50;1.00
14252;DHT22;7210;51.502;10.722;2023-02-12T07:59:04;6.50;1.00
14252;DHT22;7210;51.502;10.722;2023-02-12T08:01:38;6.50;1.00
14252;DHT22;7210;51.502;10.722;2023-02-12T08:04:09;6.50;1.00
14252;DHT22;7210;51.502;10.722;2023-02-12T08:06:45;6.60;1.00
14252;DHT22;7210;51.502;10.722;2023-02-12T08:09:17;6.60;1.00
14252;DHT22;7210;51.502;10.722;2023-02-12T08:11:47;6.60;1.00
14252;DHT22;7210;51.502;10.722;2023-02-12T08:14:17;6.60;1.00
14252;DHT22;7210;51.502;10.722;2023-02-12T08:16:47;6.70;1.00
14252;DHT22;7210;51.502;10.722;2023-02-12T08:19:16;6.80;1.00
14252;DHT22;7210;51.502;10.722;2023-02-12T08:21:44;6.80;1.00
14252;DHT22;7210;51.502;10.722;2023-02-12T08:24:12;6.90;1.00
14252;DHT22;7210;51.502;10.722;2023-02-12T08:26:42;7.10;1.00
14252;DHT22;7210;51.502;10.722;2023-02-12T08:29:13;7.20;1.00
14252;DHT22;7210;51.502;10.722;2023-02-12T08:31:44;7.20;1.00
14252;DHT22;7210;51.502;10.722;2023-02-12T08:34:16;7.30;1.00
14252;DHT22;7210;51.502;10.722;2023-02-12T08:36:46;7.30;1.00
14252;DHT22;7210;51.502;10.722;2023-02-12T08:39:16;7.30;1.00
14252;DHT22;7210;51.502;10.722;2023-02-12T08:41:44;7.40;2.40
14252;DHT22;7210;51.502;10.722;2023-02-12T08:44:14;7.40;12.60
14252;DHT22;7210;51.502;10.722;2023-02-12T08:46:44;7.40;11.50
14252;DHT22;7210;51.502;10.722;2023-02-12T08:49:15;7.40;22.80
14252;DHT22;7210;51.502;10.722;2023-02-12T08:51:46;7.50;35.70
14252;DHT22;7210;51.502;10.722;2023-02-12T08:54:20;7.50;44.50
14252;DHT22;7210;51.502;10.722;2023-02-12T08:56:50;7.50;74.40
14252;DHT22;7210;51.502;10.722;2023-02-12T08:59:22;7.50;63.70
14252;DHT22;7210;51.502;10.722;2023-02-12T09:02:00;7.50;75.00
14252;DHT22;7210;51.502;10.722;2023-02-12T09:04:29;7.60;77.20
14252;DHT22;7210;51.502;10.722;2023-02-12T09:07:12;7.70;82.90
14252;DHT22;7210;51.502;10.722;2023-02-12T09:09:39;7.80;90.50
14252;DHT22;7210;51.502;10.722;2023-02-12T09:12:07;7.80;91.50
14252;DHT22;7210;51.502;10.722;2023-02-12T09:14:38;8.00;99.90
14252;DHT22;7210;51.502;10.722;2023-02-12T09:17:05;7.90;99.90
14252;DHT22;7210;51.502;10.722;2023-02-12T09:19:32;7.90;99.90
14252;DHT22;7210;51.502;10.722;2023-02-12T09:22:01;7.90;99.90
14252;DHT22;7210;51.502;10.722;2023-02-12T09:24:28;7.90;99.90
14252;DHT22;7210;51.502;10.722;2023-02-12T09:26:55;7.80;99.90
14252;DHT22;7210;51.502;10.722;2023-02-12T09:29:23;7.80;99.90
14252;DHT22;7210;51.502;10.722;2023-02-12T09:31:51;7.80;99.90
14252;DHT22;7210;51.502;10.722;2023-02-12T09:34:19;7.90;99.90
14252;DHT22;7210;51.502;10.722;2023-02-12T09:36:46;7.90;99.90
14252;DHT22;7210;51.502;10.722;2023-02-12T09:39:13;7.80;99.90
14252;DHT22;7210;51.502;10.722;2023-02-12T09:41:54;7.90;99.90
14252;DHT22;7210;51.502;10.722;2023-02-12T09:44:46;7.90;99.90
14252;DHT22;7210;51.502;10.722;2023-02-12T09:47:27;7.90;99.90
14252;DHT22;7210;51.502;10.722;2023-02-12T09:50:10;7.90;99.90
14252;DHT22;7210;51.502;10.722;2023-02-12T09:52:51;7.90;99.90
14252;DHT22;7210;51.502;10.722;2023-02-12T09:55:26;7.90;99.90
14252;DHT22;7210;51.502;10.722;2023-02-12T09:57:56;8.00;99.90
14252;DHT22;7210;51.502;10.722;2023-02-12T10:00:27;8.00;99.90
14252;DHT22;7210;51.502;10.722;2023-02-12T10:03:00;8.00;99.90
14252;DHT22;7210;51.502;10.722;2023-02-12T10:05:31;8.00;99.90
14252;DHT22;7210;51.502;10.722;2023-02-12T10:08:19;8.00;99.90
14252;DHT22;7210;51.502;10.722;2023-02-12T10:11:02;8.00;99.90
14252;DHT22;7210;51.502;10.722;2023-02-12T10:13:46;8.00;99.90
14252;DHT22;7210;51.502;10.722;2023-02-12T10:16:38;8.10;99.90
14252;DHT22;7210;51.502;10.722;2023-02-12T10:19:26;8.00;99.90
14252;DHT22;7210;51.502;10.722;2023-02-12T10:22:18;8.00;99.90
14252;DHT22;7210;51.502;10.722;2023-02-12T10:25:04;8.00;99.90
14252;DHT22;7210;51.502;10.722;2023-02-12T10:27:48;8.00;99.90
14252;DHT22;7210;51.502;10.722;2023-02-12T10:30:20;8.00;99.90
14252;DHT22;7210;51.502;10.722;2023-02-12T10:32:59;8.00;99.90
14252;DHT22;7210;51.502;10.722;2023-02-12T10:35:32;8.10;99.90
14252;DHT22;7210;51.502;10.722;2023-02-12T10:38:15;8.10;99.90
14252;DHT22;7210;51.502;10.722;2023-02-12T10:40:45;8.20;99.90
14252;DHT22;7210;51.502;10.722;2023-02-12T10:43:15;8.10;99.90
14252;DHT22;7210;51.502;10.722;2023-02-12T10:45:43;8.20;99.90
14252;DHT22;7210;51.502;10.722;2023-02-12T10:48:14;8.30;99.90
14252;DHT22;7210;51.502;10.722;2023-02-12T10:50:54;8.40;99.90
14252;DHT22;7210;51.502;10.722;2023-02-12T10:53:31;8.50;99.90
14252;DHT22;7210;51.502;10.722;2023-02-12T10:56:14;8.60;99.90
14252;DHT22;7210;51.502;10.722;2023-02-12T10:58:55;8.80;99.90
14252;DHT22;7210;51.502;10.722;2023-02-12T11:01:26;8.90;99.90
14252;DHT22;7210;51.502;10.722;2023-02-12T11:03:57;9.00;99.90
14252;DHT22;7210;51.502;10.722;2023-02-12T11:06:30;9.10;99.90
14252;DHT22;7210;51.502;10.722;2023-02-12T11:09:00;9.20;99.90
14252;DHT22;7210;51.502;10.722;2023-02-12T11:11:30;9.20;99.90
14252;DHT22;7210;51.502;10.722;2023-02-12T11:14:33;9.20;99.90
14252;DHT22;7210;51.502;10.722;2023-02-12T11:17:00;9.20;99.90
14252;DHT22;7210;51.502;10.722;2023-02-12T11:19:29;9.20;99.90
14252;DHT22;7210;51.502;10.722;2023-02-12T11:22:06;9.20;99.90
14252;DHT22;7210;51.502;10.722;2023-02-12T11:24:37;9.20;99.90
14252;DHT22;7210;51.502;10.722;2023-02-12T11:27:19;9.10;99.90
14252;DHT22;7210;51.502;10.722;2023-02-12T11:30:15;9.20;99.90
14252;DHT22;7210;51.502;10.722;2023-02-12T11:32:44;9.20;99.90
14252;DHT22;7210;51.502;10.722;2023-02-12T11:35:16;9.20;99.90
14252;DHT22;7210;51.502;10.722;2023-02-12T11:37:53;9.20;99.90
14252;DHT22;7210;51.502;10.722;2023-02-12T11:40:25;9.20;99.90
14252;DHT22;7210;51.502;10.722;2023-02-12T11:42:56;9.30;99.90
14252;DHT22;7210;51.502;10.722;2023-02-12T11:45:33;9.30;99.90
14252;DHT22;7210;51.502;10.722;2023-02-12T11:48:16;9.50;99.90
14252;DHT22;7210;51.502;10.722;2023-02-12T11:50:47;9.40;99.90
14252;DHT22;7210;51.502;10.722;2023-02-12T11:53:22;9.50;99.90
14252;DHT22;7210;51.502;10.722;2023-02-12T11:56:02;9.50;99.90
14252;DHT22;7210;51.502;10.722;2023-02-12T11:58:32;9.60;99.90
14252;DHT22;7210;51.502;10.722;2023-02-12T12:01:07;9.60;99.90
14252;DHT22;7210;51.502;10.722;2023-02-12T12:03:47;9.50;99.90
14252;DHT22;7210;51.502;10.722;2023-02-12T12:06:32;9.50;99.90
14252;DHT22;7210;51.502;10.722;2023-02-12T12:09:10;9.40;99.90
14252;DHT22;7210;51.502;10.722;2023-02-12T12:11:49;9.40;99.90
14252;DHT22;7210;51.502;10.722;2023-02-12T12:14:30;9.50;99.90
14252;DHT22;7210;51.502;10.722;2023-02-12T12:17:27;9.40;99.90
14252;DHT22;7210;51.502;10.722;2023-02-12T12:20:25;9.30;99.90
14252;DHT22;7210;51.502;10.722;2023-02-12T12:23:01;9.40;99.90
14252;DHT22;7210;51.502;10.722;2023-02-12T12:25:36;9.30;99.90
14252;DHT22;7210;51.502;10.722;2023-02-12T12:28:24;9.40;99.90
14252;DHT22;7210;51.502;10.722;2023-02-12T12:31:01;9.50;99.90
14252;DHT22;7210;51.502;10.722;2023-02-12T12:33:40;9.40;99.90
14252;DHT22;7210;51.502;10.722;2023-02-12T12:39:33;9.30;99.90
14252;DHT22;7210;51.502;10.722;2023-02-12T12:48:51;9.30;99.90
14252;DHT22;7210;51.502;10.722;2023-02-12T12:51:35;9.40;99.90
14252;DHT22;7210;51.502;10.722;2023-02-12T12:54:27;9.30;99.90
14252;DHT22;7210;51.502;10.722;2023-02-12T12:57:09;9.20;99.90
14252;DHT22;7210;51.502;10.722;2023-02-12T12:59:53;9.10;99.90
14252;DHT22;7210;51.502;10.722;2023-02-12T13:06:21;9.20;99.90
14252;DHT22;7210;51.502;10.722;2023-02-12T13:09:28;9.10;99.90
14252;DHT22;7210;51.502;10.722;2023-02-12T13:12:48;9.10;99.90
14252;DHT22;7210;51.502;10.722;2023-02-12T13:15:30;9.10;99.90
14252;DHT22;7210;51.502;10.722;2023-02-12T13:18:13;9.20;99.90
14252;DHT22;7210;51.502;10.722;2023-02-12T13:20:50;9.20;99.90
14252;DHT22;7210;51.502;10.722;2023-02-12T13:23:33;9.10;99.90
14252;DHT22;7210;51.502;10.722;2023-02-12T13:26:12;9.10;99.90
14252;DHT22;7210;51.502;10.722;2023-02-12T13:28:45;9.10;99.90
14252;DHT22;7210;51.502;10.722;2023-02-12T13:31:19;9.20;99.90
14252;DHT22;7210;51.502;10.722;2023-02-12T13:33:52;9.20;99.90
14252;DHT22;7210;51.502;10.722;2023-02-12T13:36:37;9.20;99.90
14252;DHT22;7210;51.502;10.722;2023-02-12T13:39:11;9.20;99.90
14252;DHT22;7210;51.502;10.722;2023-02-12T13:42:06;9.20;99.90
14252;DHT22;7210;51.502;10.722;2023-02-12T13:44:46;9.20;99.90
14252;DHT22;7210;51.502;10.722;2023-02-12T13:47:28;9.20;99.90
14252;DHT22;7210;51.502;10.722;2023-02-12T13:50:07;9.10;99.90
14252;DHT22;7210;51.502;10.722;2023-02-12T13:52:57;9.20;99.90
14252;DHT22;7210;51.502;10.722;2023-02-12T13:56:06;9.20;99.90
14252;DHT22;7210;51.502;10.722;2023-02-12T13:58:50;9.20;99.90
14252;DHT22;7210;51.502;10.722;2023-02-12T14:01:37;9.20;99.90
14252;DHT22;7210;51.502;10.722;2023-02-12T14:04:30;9.30;99.90
14252;DHT22;7210;51.502;10.722;2023-02-12T14:07:03;9.30;99.90
14252;DHT22;7210;51.502;10.722;2023-02-12T14:09:35;9.30;99.90
14252;DHT22;7210;51.502;10.722;2023-02-12T14:12:08;9.30;99.90
14252;DHT22;7210;51.502;10.722;2023-02-12T14:14:40;9.20;99.90
14252;DHT22;7210;51.502;10.722;2023-02-12T14:17:41;9.30;99.90
14252;DHT22;7210;51.502;10.722;2023-02-12T14:20:22;9.30;99.90
14252;DHT22;7210;51.502;10.722;2023-02-12T14:23:23;9.20;99.90
14252;DHT22;7210;51.502;10.722;2023-02-12T14:25:59;9.00;99.90
14252;DHT22;7210;51.502;10.722;2023-02-12T14:28:48;9.00;99.90
14252;DHT22;7210;51.502;10.722;2023-02-12T14:31:40;9.00;99.90
14252;DHT22;7210;51.502;10.722;2023-02-12T14:37:16;9.10;99.90
14252;DHT22;7210;51.502;10.722;2023-02-12T14:40:36;9.10;99.90
14252;DHT22;7210;51.502;10.722;2023-02-12T14:43:28;9.00;99.90
14252;DHT22;7210;51.502;10.722;2023-02-12T14:45:58;9.00;99.90
14252;DHT22;7210;51.502;10.722;2023-02-12T14:49:03;9.00;99.90
14252;DHT22;7210;51.502;10.722;2023-02-12T14:51:35;8.90;99.90
14252;DHT22;7210;51.502;10.722;2023-02-12T14:54:14;8.90;99.90
14252;DHT22;7210;51.502;10.722;2023-02-12T14:56:55;8.80;99.90
14252;DHT22;7210;51.502;10.722;2023-02-12T14:59:31;8.70;99.90
14252;DHT22;7210;51.502;10.722;2023-02-12T15:02:05;8.70;99.90
14252;DHT22;7210;51.502;10.722;2023-02-12T15:04:37;8.60;99.90
14252;DHT22;7210;51.502;10.722;2023-02-12T15:07:15;8.60;99.90
14252;DHT22;7210;51.502;10.722;2023-02-12T15:09:51;8.50;99.90
14252;DHT22;7210;51.502;10.722;2023-02-12T15:12:30;8.50;99.90
14252;DHT22;7210;51.502;10.722;2023-02-12T15:15:05;8.50;99.90
14252;DHT22;7210;51.502;10.722;2023-02-12T15:17:40;8.40;99.90
14252;DHT22;7210;51.502;10.722;2023-02-12T15:20:24;8.40;99.90
14252;DHT22;7210;51.502;10.722;2023-02-12T15:22:57;8.30;99.90
14252;DHT22;7210;51.502;10.722;2023-02-12T15:25:25;8.30;99.90
14252;DHT22;7210;51.502;10.722;2023-02-12T15:27:58;8.30;99.90
14252;DHT22;7210;51.502;10.722;2023-02-12T15:30:29;8.30;99.90
14252;DHT22;7210;51.502;10.722;2023-02-12T15:33:02;8.30;99.90
14252;DHT22;7210;51.502;10.722;2023-02-12T15:35:33;8.30;99.90
14252;DHT22;7210;51.502;10.722;2023-02-12T15:38:01;8.30;99.90
14252;DHT22;7210;51.502;10.722;2023-02-12T15:40:34;8.30;99.90
14252;DHT22;7210;51.502;10.722;2023-02-12T15:43:04;8.20;99.90
14252;DHT22;7210;51.502;10.722;2023-02-12T15:45:36;8.20;99.90
14252;DHT22;7210;51.502;10.722;2023-02-12T15:48:11;8.20;99.90
14252;DHT22;7210;51.502;10.722;2023-02-12T15:50:47;8.20;99.90
14252;DHT22;7210;51.502;10.722;2023-02-12T15:53:19;8.10;99.90
14252;DHT22;7210;51.502;10.722;2023-02-12T15:55:49;8.10;99.90
14252;DHT22;7210;51.502;10.722;2023-02-12T15:58:24;8.00;99.90
14252;DHT22;7210;51.502;10.722;2023-02-12T16:00:54;8.00;99.90
14252;DHT22;7210;51.502;10.722;2023-02-12T16:03:28;8.00;99.90
14252;DHT22;7210;51.502;10.722;2023-02-12T16:06:01;8.00;99.90
14252;DHT22;7210;51.502;10.722;2023-02-12T16:08:32;7.90;99.90
14252;DHT22;7210;51.502;10.722;2023-02-12T16:11:01;7.90;99.90
14252;DHT22;7210;51.502;10.722;2023-02-12T16:13:42;7.90;99.90
14252;DHT22;7210;51.502;10.722;2023-02-12T16:16:21;7.90;99.90
14252;DHT22;7210;51.502;10.722;2023-02-12T16:19:13;7.80;99.90
14252;DHT22;7210;51.502;10.722;2023-02-12T16:21:46;7.80;99.90
14252;DHT22;7210;51.502;10.722;2023-02-12T16:24:29;7.80;99.90
14252;DHT22;7210;51.502;10.722;2023-02-12T16:27:06;7.80;99.90
14252;DHT22;7210;51.502;10.722;2023-02-12T16:29:46;7.80;99.90
14252;DHT22;7210;51.502;10.722;2023-02-12T16:32:32;7.70;99.90
14252;DHT22;7210;51.502;10.722;2023-02-12T16:35:05;7.80;99.90
14252;DHT22;7210;51.502;10.722;2023-02-12T16:37:50;7.70;99.90
14252;DHT22;7210;51.502;10.722;2023-02-12T16:40:28;7.70;99.90
14252;DHT22;7210;51.502;10.722;2023-02-12T16:43:21;7.70;99.90
14252;DHT22;7210;51.502;10.722;2023-02-12T16:46:02;7.70;99.90
14252;DHT22;7210;51.502;10.722;2023-02-12T16:48:37;7.70;99.90
14252;DHT22;7210;51.502;10.722;2023-02-12T16:51:20;7.70;99.90
14252;DHT22;7210;51.502;10.722;2023-02-12T16:53:49;7.70;99.90
14252;DHT22;7210;51.502;10.722;2023-02-12T16:56:20;7.70;99.90
14252;DHT22;7210;51.502;10.722;2023-02-12T16:58:51;7.60;99.90
14252;DHT22;7210;51.502;10.722;2023-02-12T17:01:25;7.60;99.90
14252;DHT22;7210;51.502;10.722;2023-02-12T17:03:55;7.60;99.90
14252;DHT22;7210;51.502;10.722;2023-02-12T17:06:25;7.50;99.90